Terminal Aerodrome Forecast
Issued by NWS

Home | Current Version | Previous Version | Text Only | Print | Product List | Glossary On
Versions: 1 2 3 4 5 6 7 8 9 10 11 12 13 14 15 16 17 18 19 20 21 22 23 24 25 26 27 28 29 30 31 32
000
FTUS44 KFWD 060743 AAA
TAFDAL
TAF AMD
KDAL 060743Z 0608/0706 15014KT P6SM -RA BKN018
      TEMPO 0608/0610 4SM SHRA
     FM061100 16015KT P6SM BKN012
     FM061700 17015KT P6SM BKN024
     FM061900 18015KT P6SM VCSH BKN035
     FM070200 16012KT P6SM BKN022=

USA.gov is the U.S. government's official web portal to all federal, state and local government web resources and services.